Time;durP1;ratioP1;P1;durP2;ratioP2;P2;SDS_P1;SDS_P2;PMS_P1;PMS_P2;Temp;Humidity;BMP_temperature;BMP_pressure;BME280_temperature;BME280_humidity;BME280_pressure;Samples;Min_cycle;Max_cycle;Signal;HPM_P1;HPM_P2
2024/03/01 00:01:06;;;;;;;28.83;13.15;;;6.20;99.90;;;;;;12428985;28;20045;-35
2024/03/01 00:07:08;;;;;;;27.73;15.18;;;6.20;99.90;;;;;;12433282;28;20409;-35
2024/03/01 00:13:09;;;;;;;29.45;14.98;;;6.20;99.90;;;;;;12430657;28;20509;-36
2024/03/01 00:19:11;;;;;;;24.80;13.52;;;6.20;99.90;;;;;;12430646;28;20430;-35
2024/03/01 00:25:13;;;;;;;25.48;13.93;;;6.10;99.90;;;;;;12443331;28;20041;-35
2024/03/01 00:31:15;;;;;;;26.25;13.85;;;6.10;99.90;;;;;;12441128;28;20049;-35
2024/03/01 00:37:17;;;;;;;26.15;13.57;;;6.10;99.90;;;;;;12438123;28;20054;-36
2024/03/01 00:43:19;;;;;;;31.77;16.25;;;6.00;99.90;;;;;;12424399;28;20050;-35
2024/03/01 00:49:21;;;;;;;31.42;15.82;;;6.00;99.90;;;;;;12411901;28;20053;-35
2024/03/01 00:55:23;;;;;;;30.77;15.48;;;5.90;99.90;;;;;;12438280;28;20125;-35
2024/03/01 01:01:25;;;;;;;30.95;15.55;;;5.90;99.90;;;;;;12437965;28;20088;-35
2024/03/01 01:07:27;;;;;;;32.05;15.20;;;5.80;99.90;;;;;;12437935;28;20042;-35
2024/03/01 01:13:29;;;;;;;29.58;15.02;;;5.70;99.90;;;;;;12442006;28;20049;-35
2024/03/01 01:19:31;;;;;;;31.33;14.43;;;5.70;99.90;;;;;;12441127;28;20085;-35
2024/03/01 01:25:33;;;;;;;29.48;14.50;;;5.70;99.90;;;;;;12437485;28;20054;-35
2024/03/01 01:31:35;;;;;;;30.15;14.57;;;5.70;99.90;;;;;;12427688;28;20129;-36
2024/03/01 01:37:37;;;;;;;29.02;14.85;;;5.70;99.90;;;;;;12440273;28;20053;-35
2024/03/01 01:43:42;;;;;;;32.47;14.80;;;5.70;99.90;;;;;;12431991;28;20091;-36
2024/03/01 01:49:44;;;;;;;29.92;15.13;;;5.60;99.90;;;;;;12438011;28;20398;-35
2024/03/01 01:55:47;;;;;;;31.60;16.05;;;5.60;99.90;;;;;;12438039;28;20099;-36
2024/03/01 02:01:49;;;;;;;31.17;14.50;;;5.50;99.90;;;;;;12417113;28;20046;-35
2024/03/01 02:07:51;;;;;;;28.90;14.15;;;5.50;99.90;;;;;;12430670;28;20046;-35
2024/03/01 02:13:56;;;;;;;33.83;15.52;;;5.50;99.90;;;;;;12441851;28;20042;-36
2024/03/01 02:19:58;;;;;;;31.52;13.60;;;5.40;99.90;;;;;;12435483;28;20581;-34
2024/03/01 02:26:00;;;;;;;30.20;14.52;;;5.40;99.90;;;;;;12436317;28;20152;-36
2024/03/01 02:32:02;;;;;;;30.20;14.80;;;5.40;99.90;;;;;;12433144;28;20093;-35
2024/03/01 02:38:04;;;;;;;33.15;15.80;;;5.30;99.90;;;;;;12432091;28;20046;-36
2024/03/01 02:44:06;;;;;;;30.15;14.15;;;5.30;99.90;;;;;;12437300;28;20502;-36
2024/03/01 02:50:08;;;;;;;31.65;15.35;;;5.30;99.90;;;;;;12433298;28;20057;-35
2024/03/01 02:56:10;;;;;;;32.33;15.43;;;5.30;99.90;;;;;;12420708;28;20049;-35
2024/03/01 03:02:12;;;;;;;29.40;14.68;;;5.40;99.90;;;;;;12421658;28;20180;-35
2024/03/01 03:08:14;;;;;;;30.33;15.10;;;5.40;99.90;;;;;;12427068;28;20414;-35
2024/03/01 03:14:15;;;;;;;34.92;16.10;;;5.40;99.90;;;;;;12436649;28;20189;-35
2024/03/01 03:20:18;;;;;;;29.50;14.73;;;5.40;99.90;;;;;;12416855;28;20101;-35
2024/03/01 03:26:20;;;;;;;27.67;14.75;;;5.40;99.90;;;;;;12433108;28;20076;-35
2024/03/01 03:32:22;;;;;;;31.70;15.50;;;5.40;99.90;;;;;;12424059;28;20062;-35
2024/03/01 03:38:24;;;;;;;27.42;14.05;;;5.50;99.90;;;;;;12433380;28;20057;-36
2024/03/01 03:44:25;;;;;;;28.67;14.25;;;5.60;99.90;;;;;;12420478;28;20084;-36
2024/03/01 03:50:27;;;;;;;30.67;15.27;;;5.70;99.90;;;;;;12433411;28;20050;-36
2024/03/01 03:56:29;;;;;;;30.60;15.45;;;5.80;99.90;;;;;;12427227;28;20050;-35
2024/03/01 04:02:31;;;;;;;33.13;15.55;;;5.90;99.90;;;;;;12427795;28;20494;-36
2024/03/01 04:08:39;;;;;;;29.15;15.65;;;5.80;99.90;;;;;;12423625;28;20050;-35
2024/03/01 04:14:41;;;;;;;34.25;15.25;;;5.70;99.90;;;;;;12437266;28;20053;-35
2024/03/01 04:20:44;;;;;;;31.80;15.93;;;5.70;99.90;;;;;;12428354;28;20085;-35
2024/03/01 04:26:46;;;;;;;26.30;15.55;;;5.60;99.90;;;;;;12423218;28;20046;-35
2024/03/01 04:32:47;;;;;;;27.40;15.70;;;5.60;99.90;;;;;;12408418;28;20557;-35
2024/03/01 04:38:49;;;;;;;30.15;15.82;;;5.50;99.90;;;;;;12429036;28;20053;-34
2024/03/01 04:44:51;;;;;;;30.67;15.43;;;5.60;99.90;;;;;;12423675;28;20507;-35
2024/03/01 04:50:53;;;;;;;29.48;15.10;;;5.60;99.90;;;;;;12430504;28;20092;-36
2024/03/01 04:56:56;;;;;;;26.20;14.75;;;5.50;99.90;;;;;;12429959;28;20715;-35
2024/03/01 05:03:06;;;;;;;28.40;14.52;;;5.60;99.90;;;;;;12426413;28;20073;-36
2024/03/01 05:09:08;;;;;;;27.73;14.32;;;5.50;99.90;;;;;;12434421;28;20048;-35
2024/03/01 05:15:12;;;;;;;30.10;13.95;;;5.50;99.90;;;;;;12445086;28;20457;-36
2024/03/01 05:21:14;;;;;;;29.23;14.63;;;5.40;99.90;;;;;;12433812;28;20058;-35
2024/03/01 05:27:16;;;;;;;26.08;14.63;;;5.40;99.90;;;;;;12438560;28;20133;-35
2024/03/01 05:33:18;;;;;;;29.30;14.75;;;5.40;99.90;;;;;;12439465;28;20050;-35
2024/03/01 05:39:20;;;;;;;29.10;15.27;;;5.40;99.90;;;;;;12435809;28;20060;-35
2024/03/01 05:45:22;;;;;;;25.55;13.52;;;5.40;99.90;;;;;;12433037;28;20084;-35
2024/03/01 05:51:23;;;;;;;31.15;15.55;;;5.40;99.90;;;;;;12434376;28;20136;-35
2024/03/01 05:57:26;;;;;;;28.15;14.20;;;5.30;99.90;;;;;;12430523;28;20128;-35
2024/03/01 06:03:28;;;;;;;30.85;14.82;;;5.30;99.90;;;;;;12438378;28;20473;-35
2024/03/01 06:09:29;;;;;;;25.77;13.65;;;5.40;99.90;;;;;;12433811;28;20136;-35
2024/03/01 06:15:31;;;;;;;33.95;15.10;;;5.30;99.90;;;;;;12442074;28;20180;-35
2024/03/01 06:21:33;;;;;;;28.10;14.95;;;5.30;99.90;;;;;;12432825;28;20084;-35
2024/03/01 06:27:35;;;;;;;27.92;15.90;;;5.30;99.90;;;;;;12424296;28;20125;-35
2024/03/01 06:33:40;;;;;;;31.95;16.98;;;5.40;99.90;;;;;;12419333;28;20054;-34
2024/03/01 06:39:42;;;;;;;28.02;15.80;;;5.50;99.90;;;;;;12431272;28;20057;-35
2024/03/01 06:45:44;;;;;;;29.27;14.82;;;5.60;99.90;;;;;;12435619;28;20077;-35
2024/03/01 06:51:46;;;;;;;26.83;14.48;;;5.80;99.90;;;;;;12435674;28;20081;-34
2024/03/01 06:57:48;;;;;;;29.30;14.43;;;5.90;99.90;;;;;;12407051;28;20042;-35
2024/03/01 07:03:50;;;;;;;25.80;13.63;;;6.00;99.90;;;;;;12431501;28;20053;-35
2024/03/01 07:09:52;;;;;;;26.70;14.50;;;6.20;99.90;;;;;;12408862;28;20042;-36
2024/03/01 07:15:54;;;;;;;24.77;13.65;;;6.30;99.90;;;;;;12440579;28;20129;-35
2024/03/01 07:21:56;;;;;;;27.00;15.82;;;6.40;99.90;;;;;;12432103;28;20691;-35
2024/03/01 07:27:59;;;;;;;24.40;14.18;;;6.50;99.90;;;;;;12431027;28;20042;-36
2024/03/01 07:34:01;;;;;;;22.23;13.48;;;6.50;99.90;;;;;;12426890;28;20469;-36
2024/03/01 07:40:04;;;;;;;24.52;14.00;;;6.70;99.90;;;;;;12419414;28;20069;-35
2024/03/01 07:46:07;;;;;;;22.13;14.10;;;6.90;99.90;;;;;;12424236;28;20080;-36
2024/03/01 07:52:09;;;;;;;24.70;14.95;;;7.10;99.90;;;;;;12432424;28;20041;-36
2024/03/01 07:58:10;;;;;;;22.77;14.90;;;7.30;99.90;;;;;;12431932;28;20567;-36
2024/03/01 08:04:12;;;;;;;19.00;14.10;;;7.80;99.90;;;;;;12402340;28;20065;-36
2024/03/01 08:10:15;;;;;;;18.90;14.85;;;8.40;99.90;;;;;;12431411;28;20050;-36
2024/03/01 08:16:25;;;;;;;20.27;17.48;;;8.90;99.90;;;;;;12435538;28;20462;-36
2024/03/01 08:22:27;;;;;;;20.83;17.05;;;8.90;99.90;;;;;;12428558;28;20060;-36
2024/03/01 08:28:31;;;;;;;18.65;16.65;;;9.00;99.90;;;;;;12424996;28;20061;-36
2024/03/01 08:34:50;;;;;;;18.77;16.80;;;9.00;99.90;;;;;;12421610;28;20406;-36
2024/03/01 08:40:57;;;;;;;20.77;17.92;;;9.00;99.90;;;;;;12421878;28;20196;-35
2024/03/01 08:46:59;;;;;;;22.02;18.02;;;9.20;99.90;;;;;;12385999;28;20049;-35
2024/03/01 08:53:01;;;;;;;24.30;19.75;;;9.40;99.90;;;;;;12430144;28;20069;-36
2024/03/01 08:59:26;;;;;;;24.13;19.85;;;9.30;99.90;;;;;;12425848;28;20073;-36
2024/03/01 09:05:30;;;;;;;22.90;18.88;;;9.10;99.90;;;;;;12423116;28;20526;-36
2024/03/01 09:11:32;;;;;;;;;;;8.90;99.90;;;;;;12441488;28;20379;-36
2024/03/01 09:17:34;;;;;;;20.38;17.08;;;8.80;99.90;;;;;;12443544;28;19925;-36
2024/03/01 09:23:36;;;;;;;21.20;17.83;;;8.80;99.90;;;;;;12435006;28;20180;-36
2024/03/01 09:29:38;;;;;;;22.15;17.00;;;9.00;99.90;;;;;;12434896;28;20042;-36
2024/03/01 09:35:40;;;;;;;20.73;15.88;;;9.10;99.90;;;;;;12438145;28;20054;-36
2024/03/01 09:41:42;;;;;;;21.33;17.27;;;9.30;99.90;;;;;;12439342;28;20080;-36
2024/03/01 09:48:02;;;;;;;21.17;18.00;;;9.50;99.90;;;;;;12441855;28;20256;-36
2024/03/01 09:54:25;;;;;;;21.65;18.60;;;10.00;99.90;;;;;;12433405;28;20243;-36
2024/03/01 10:00:32;;;;;;;21.05;18.70;;;10.40;99.90;;;;;;12437390;28;20406;-36
2024/03/01 10:06:45;;;;;;;26.20;20.48;;;10.20;99.90;;;;;;12437924;28;20056;-36
2024/03/01 10:12:59;;;;;;;23.17;20.23;;;9.70;99.90;;;;;;12439800;28;20121;-36
2024/03/01 10:19:24;;;;;;;24.58;19.02;;;9.40;99.90;;;;;;12436111;28;20050;-36
2024/03/01 10:25:44;;;;;;;22.70;17.35;;;9.50;99.90;;;;;;12438544;28;20601;-37
2024/03/01 10:32:10;;;;;;;23.58;17.35;;;9.50;99.90;;;;;;12432710;28;20465;-36
2024/03/01 10:38:18;;;;;;;22.90;17.60;;;9.50;99.90;;;;;;12431276;28;20415;-35
2024/03/01 10:44:40;;;;;;;24.48;18.05;;;9.40;99.90;;;;;;12432315;28;20088;-36
2024/03/01 10:50:51;;;;;;;24.23;17.67;;;9.20;99.90;;;;;;12434120;28;20065;-36
2024/03/01 10:56:55;;;;;;;24.23;17.40;;;9.10;99.90;;;;;;12422601;28;20145;-35
2024/03/01 11:03:28;;;;;;;21.73;15.82;;;9.10;99.90;;;;;;12437122;28;20517;-36
2024/03/01 11:09:46;;;;;;;17.10;13.48;;;9.20;99.90;;;;;;12430100;28;20053;-36
2024/03/01 11:15:49;;;;;;;13.27;11.98;;;9.50;99.90;;;;;;12436483;28;20069;-36
2024/03/01 11:22:07;;;;;;;13.52;12.23;;;9.80;99.90;;;;;;12423952;28;20068;-36
2024/03/01 11:28:12;;;;;;;14.50;13.20;;;10.10;99.90;;;;;;12410114;28;20129;-36
2024/03/01 11:34:42;;;;;;;13.98;12.60;;;10.30;99.90;;;;;;12426269;28;20433;-35
2024/03/01 11:41:21;;;;;;;12.48;11.38;;;10.30;99.90;;;;;;12425454;28;20054;-36
2024/03/01 11:47:56;;;;;;;11.82;10.82;;;10.30;99.90;;;;;;12433416;28;20046;-36
2024/03/01 11:54:33;;;;;;;15.35;14.02;;;10.20;99.90;;;;;;12426086;28;20053;-35
2024/03/01 12:00:55;;;;;;;15.70;13.93;;;9.90;99.90;;;;;;12423710;28;20096;-36
2024/03/01 12:07:24;;;;;;;15.15;13.65;;;9.50;99.90;;;;;;12423293;28;20061;-36
2024/03/01 12:13:30;;;;;;;15.18;13.25;;;9.20;99.90;;;;;;12429728;28;20328;-36
2024/03/01 12:19:58;;;;;;;15.52;13.82;;;9.20;99.90;;;;;;12435681;28;20804;-34
2024/03/01 12:26:05;;;;;;;15.82;13.48;;;9.10;99.90;;;;;;12436382;28;20046;-36
2024/03/01 12:32:34;;;;;;;15.80;13.80;;;9.40;99.90;;;;;;12437817;28;20051;-36
2024/03/01 12:38:42;;;;;;;16.10;14.40;;;9.70;99.90;;;;;;12432589;28;20064;-36
2024/03/01 12:45:00;;;;;;;17.83;16.02;;;10.20;99.90;;;;;;12437676;28;20523;-36
2024/03/01 12:51:14;;;;;;;18.40;16.58;;;10.80;99.90;;;;;;12437574;28;20046;-36
2024/03/01 12:57:49;;;;;;;20.17;18.48;;;11.50;99.90;;;;;;12440742;28;20053;-35
2024/03/01 13:04:15;;;;;;;20.80;18.80;;;11.80;99.90;;;;;;12418256;28;20076;-34
2024/03/01 13:10:18;;;;;;;22.38;20.67;;;11.50;99.90;;;;;;12434940;28;20056;-36
2024/03/01 13:16:21;;;;;;;22.02;20.33;;;11.50;99.90;;;;;;12443144;28;20132;-36
2024/03/01 13:22:27;;;;;;;20.15;18.55;;;11.40;99.90;;;;;;12440175;28;20062;-36
2024/03/01 13:28:29;;;;;;;18.27;16.75;;;10.70;99.90;;;;;;12418895;28;20099;-36
2024/03/01 13:34:36;;;;;;;21.15;19.35;;;10.60;99.90;;;;;;12431405;28;20542;-36
2024/03/01 13:40:42;;;;;;;18.13;16.52;;;10.50;99.90;;;;;;12383342;28;20058;-36
2024/03/01 13:46:46;;;;;;;17.92;16.42;;;10.60;99.90;;;;;;12425109;28;20077;-35
2024/03/01 13:52:48;;;;;;;18.17;16.38;;;11.00;99.90;;;;;;12432467;28;20050;-36
2024/03/01 13:58:51;;;;;;;19.67;17.98;;;11.30;99.90;;;;;;12426048;28;20099;-36
2024/03/01 14:05:03;;;;;;;22.40;18.63;;;11.20;99.90;;;;;;12420310;28;20082;-36
2024/03/01 14:11:04;;;;;;;18.15;16.50;;;10.60;99.90;;;;;;12426731;28;20041;-36
2024/03/01 14:17:07;;;;;;;18.85;16.85;;;10.40;99.90;;;;;;12440661;28;20088;-36
2024/03/01 14:23:10;;;;;;;17.13;15.32;;;10.40;99.90;;;;;;12440375;28;20052;-35
2024/03/01 14:29:12;;;;;;;17.10;15.43;;;10.50;99.90;;;;;;12426136;28;20525;-36
2024/03/01 14:35:23;;;;;;;15.88;14.30;;;10.40;99.90;;;;;;12433367;28;20046;-36
2024/03/01 14:41:36;;;;;;;15.40;13.90;;;10.50;99.90;;;;;;12424790;28;20080;-36
2024/03/01 14:47:56;;;;;;;14.77;13.15;;;10.50;99.90;;;;;;12434828;28;20050;-36
2024/03/01 14:53:59;;;;;;;14.60;13.10;;;10.50;99.90;;;;;;12426724;28;20499;-35
2024/03/01 15:00:01;;;;;;;13.98;12.68;;;10.50;99.90;;;;;;12433800;28;20054;-36
2024/03/01 15:06:08;;;;;;;13.38;12.07;;;10.40;99.90;;;;;;12433156;28;20516;-36
2024/03/01 15:12:11;;;;;;;13.88;12.45;;;10.40;99.90;;;;;;12431969;28;20506;-35
2024/03/01 15:18:17;;;;;;;13.68;12.43;;;10.40;99.90;;;;;;12433932;28;20053;-35
2024/03/01 15:24:20;;;;;;;12.52;11.32;;;10.20;99.90;;;;;;12421305;28;20528;-36
2024/03/01 15:30:27;;;;;;;13.40;12.20;;;10.20;99.90;;;;;;12429935;28;20057;-36
2024/03/01 15:36:29;;;;;;;13.18;11.98;;;10.10;99.90;;;;;;12433165;28;20046;-36
2024/03/01 15:42:31;;;;;;;13.13;11.82;;;10.00;99.90;;;;;;12432730;28;20149;-36
2024/03/01 15:48:33;;;;;;;12.65;11.45;;;10.00;99.90;;;;;;12426307;28;20745;-36
2024/03/01 15:54:35;;;;;;;13.15;11.90;;;10.00;99.90;;;;;;12427210;28;20053;-36
2024/03/01 16:00:37;;;;;;;13.65;11.93;;;10.00;99.90;;;;;;12430558;28;20160;-36
2024/03/01 16:06:40;;;;;;;12.70;11.27;;;9.90;99.90;;;;;;12434031;28;20058;-36
2024/03/01 16:13:01;;;;;;;13.55;11.77;;;9.80;99.90;;;;;;12411261;28;20482;-36
2024/03/01 16:19:04;;;;;;;12.60;11.32;;;9.70;99.90;;;;;;12425494;28;20387;-36
2024/03/01 16:25:09;;;;;;;13.90;10.98;;;9.70;99.90;;;;;;12432867;28;20072;-36
2024/03/01 16:31:11;;;;;;;15.98;11.80;;;9.70;99.90;;;;;;12429685;28;20053;-35
2024/03/01 16:37:17;;;;;;;14.27;11.45;;;9.50;99.90;;;;;;12433335;28;20521;-36
2024/03/01 16:43:37;;;;;;;12.98;10.32;;;9.40;99.90;;;;;;12433885;28;20050;-36
2024/03/01 16:49:41;;;;;;;12.25;9.88;;;9.30;99.90;;;;;;12433002;28;20069;-36
2024/03/01 16:55:50;;;;;;;11.85;10.25;;;9.20;99.90;;;;;;12428525;28;20133;-36
2024/03/01 17:01:52;;;;;;;13.20;10.57;;;9.20;99.90;;;;;;12433771;28;20053;-36
2024/03/01 17:07:55;;;;;;;14.27;10.18;;;9.10;99.90;;;;;;12435749;28;20046;-36
2024/03/01 17:13:59;;;;;;;13.48;10.40;;;9.00;99.90;;;;;;12444611;28;20421;-36
2024/03/01 17:20:04;;;;;;;14.50;9.65;;;8.90;99.90;;;;;;12435781;28;20054;-36
2024/03/01 17:26:05;;;;;;;12.55;9.93;;;8.80;99.90;;;;;;12435875;28;20079;-36
2024/03/01 17:32:07;;;;;;;11.30;9.43;;;8.70;99.90;;;;;;12434177;28;20138;-36
2024/03/01 17:38:09;;;;;;;11.63;9.90;;;8.70;99.90;;;;;;12431988;28;20772;-36
2024/03/01 17:44:11;;;;;;;11.40;8.52;;;8.70;99.90;;;;;;12435368;28;20074;-35
2024/03/01 17:50:13;;;;;;;10.65;8.70;;;8.60;99.90;;;;;;12440065;28;20076;-36
2024/03/01 17:56:16;;;;;;;11.02;9.13;;;8.60;99.90;;;;;;12429361;28;20537;-36
2024/03/01 18:02:18;;;;;;;11.23;9.23;;;8.50;99.90;;;;;;12430039;28;20549;-36
2024/03/01 18:08:20;;;;;;;11.73;8.98;;;8.60;99.90;;;;;;12442411;28;20049;-35
2024/03/01 18:14:22;;;;;;;10.30;8.52;;;8.50;99.90;;;;;;12448634;28;21866;-36
2024/03/01 18:20:24;;;;;;;12.48;8.75;;;8.40;99.90;;;;;;12439083;28;20131;-36
2024/03/01 18:26:25;;;;;;;13.32;8.70;;;8.50;99.90;;;;;;12433792;28;20061;-36
2024/03/01 18:32:27;;;;;;;11.25;8.02;;;8.40;99.90;;;;;;12435624;28;20130;-36
2024/03/01 18:38:29;;;;;;;11.85;8.48;;;8.40;99.90;;;;;;12432311;28;20057;-36
2024/03/01 18:44:31;;;;;;;11.02;7.63;;;8.40;99.90;;;;;;12439844;28;20514;-36
2024/03/01 18:50:33;;;;;;;11.43;8.40;;;8.40;99.90;;;;;;12437901;28;20183;-36
2024/03/01 18:56:35;;;;;;;12.23;9.13;;;8.40;99.90;;;;;;12435813;28;20077;-35
2024/03/01 19:02:37;;;;;;;11.23;8.55;;;8.30;99.90;;;;;;12423356;28;20521;-36
2024/03/01 19:08:39;;;;;;;12.95;9.10;;;8.30;99.90;;;;;;12429419;28;20208;-36
2024/03/01 19:14:41;;;;;;;15.48;10.50;;;8.20;99.90;;;;;;12435445;28;20442;-36
2024/03/01 19:20:43;;;;;;;13.93;10.02;;;8.10;99.90;;;;;;12430128;28;20181;-34
2024/03/01 19:26:45;;;;;;;14.80;10.25;;;8.20;99.90;;;;;;12437245;28;20057;-36
2024/03/01 19:32:47;;;;;;;13.32;9.27;;;8.00;99.90;;;;;;12429374;28;20184;-36
2024/03/01 19:38:49;;;;;;;13.48;9.45;;;8.00;99.90;;;;;;12419225;28;20374;-36
2024/03/01 19:44:51;;;;;;;12.68;9.10;;;7.90;99.90;;;;;;12432675;28;20056;-36
2024/03/01 19:50:52;;;;;;;14.55;9.55;;;7.90;99.90;;;;;;12434623;28;20136;-36
2024/03/01 19:56:54;;;;;;;11.98;9.00;;;7.80;99.90;;;;;;12434038;28;20483;-36
2024/03/01 20:02:56;;;;;;;13.45;9.23;;;7.80;99.90;;;;;;12433902;28;20053;-36
2024/03/01 20:08:58;;;;;;;11.82;9.20;;;7.70;99.90;;;;;;12431209;28;20053;-36
2024/03/01 20:15:03;;;;;;;13.05;9.25;;;7.60;99.90;;;;;;12437069;28;20053;-36
2024/03/01 20:21:05;;;;;;;14.53;9.53;;;7.60;99.90;;;;;;12425497;28;20060;-35
2024/03/01 20:27:06;;;;;;;13.75;8.55;;;7.60;99.90;;;;;;12429442;28;20183;-35
2024/03/01 20:33:08;;;;;;;10.95;7.88;;;7.60;99.90;;;;;;12435022;28;20085;-35
2024/03/01 20:39:10;;;;;;;10.80;7.57;;;7.50;99.90;;;;;;12433452;28;20738;-36
2024/03/01 20:45:12;;;;;;;10.15;7.43;;;7.40;99.90;;;;;;12441548;28;20080;-36
2024/03/01 20:51:14;;;;;;;11.85;8.40;;;7.40;99.90;;;;;;12433695;28;20050;-36
2024/03/01 20:57:17;;;;;;;11.90;7.80;;;7.40;99.90;;;;;;12439214;28;20494;-36
2024/03/01 21:03:18;;;;;;;12.70;8.40;;;7.30;99.90;;;;;;12438745;28;20058;-36
2024/03/01 21:09:20;;;;;;;10.13;8.20;;;7.30;99.90;;;;;;12434586;28;20081;-35
2024/03/01 21:15:22;;;;;;;10.80;7.65;;;7.30;99.90;;;;;;12440995;28;20084;-36
2024/03/01 21:21:24;;;;;;;12.35;8.35;;;7.40;99.90;;;;;;12438691;28;20137;-36
2024/03/01 21:27:26;;;;;;;13.63;8.32;;;7.40;99.90;;;;;;12440132;28;20148;-36
2024/03/01 21:33:28;;;;;;;9.93;7.18;;;7.40;99.90;;;;;;12437800;28;20089;-36
2024/03/01 21:39:29;;;;;;;9.63;7.47;;;7.30;99.90;;;;;;12432877;28;20453;-35
2024/03/01 21:45:31;;;;;;;8.80;7.30;;;7.30;99.90;;;;;;12432193;28;20077;-36
2024/03/01 21:51:35;;;;;;;10.88;7.07;;;7.10;99.90;;;;;;12438438;28;20129;-36
2024/03/01 21:57:37;;;;;;;8.75;7.28;;;7.10;99.90;;;;;;12429422;28;20045;-36
2024/03/01 22:03:39;;;;;;;9.18;7.38;;;7.10;99.90;;;;;;12437543;28;20160;-35
2024/03/01 22:09:41;;;;;;;7.85;6.72;;;7.10;99.90;;;;;;12435653;28;20045;-36
2024/03/01 22:15:43;;;;;;;7.35;6.32;;;7.10;99.90;;;;;;12443033;28;20478;-36
2024/03/01 22:21:45;;;;;;;8.10;7.03;;;7.00;99.90;;;;;;12432362;28;20050;-35
2024/03/01 22:27:47;;;;;;;8.10;6.63;;;7.00;99.90;;;;;;12434307;28;20069;-36
2024/03/01 22:33:49;;;;;;;8.93;6.85;;;7.10;99.90;;;;;;12433100;28;20054;-36
2024/03/01 22:39:51;;;;;;;7.38;6.53;;;7.10;99.90;;;;;;12436185;28;20050;-35
2024/03/01 22:45:53;;;;;;;8.98;6.85;;;7.00;99.90;;;;;;12436660;28;20049;-36
2024/03/01 22:51:55;;;;;;;8.10;6.68;;;7.00;99.90;;;;;;12409991;28;20536;-36
2024/03/01 22:57:57;;;;;;;7.85;6.78;;;7.00;99.90;;;;;;12436857;28;20547;-36
2024/03/01 23:03:59;;;;;;;8.77;6.90;;;7.00;99.90;;;;;;12433712;28;20053;-35
2024/03/01 23:10:04;;;;;;;8.65;7.13;;;7.00;99.90;;;;;;12415333;28;20050;-36
2024/03/01 23:16:06;;;;;;;9.77;7.72;;;7.00;99.90;;;;;;12438939;28;20422;-36
2024/03/01 23:22:14;;;;;;;9.07;7.50;;;6.90;99.90;;;;;;12434542;28;20041;-36
2024/03/01 23:28:17;;;;;;;8.70;7.10;;;7.00;99.90;;;;;;12436305;28;20107;-36
2024/03/01 23:34:19;;;;;;;10.00;7.55;;;7.00;99.90;;;;;;12429984;28;20096;-35
2024/03/01 23:40:21;;;;;;;9.45;7.82;;;6.90;99.90;;;;;;12434537;28;20160;-35
2024/03/01 23:46:22;;;;;;;11.00;7.82;;;6.90;99.90;;;;;;12426412;28;20042;-36
2024/03/01 23:52:24;;;;;;;8.52;7.53;;;6.90;99.90;;;;;;12431190;28;20084;-35
2024/03/01 23:58:26;;;;;;;9.32;7.57;;;6.90;99.90;;;;;;12434592;28;20045;-35
